sensor_id;sensor_type;location;lat;lon;timestamp;pressure;altitude;pressure_sealevel;temperature;humidity
71716;BME280;59568;52.128;5.434;2023-02-25T00:01:33;100937.88;;;2.64;95.01
71716;BME280;59568;52.128;5.434;2023-02-25T00:03:59;100946.25;;;2.71;95.13
71716;BME280;59568;52.128;5.434;2023-02-25T00:06:26;100940.16;;;2.77;95.25
71716;BME280;59568;52.128;5.434;2023-02-25T00:08:53;100939.78;;;2.86;94.95
71716;BME280;59568;52.128;5.434;2023-02-25T00:11:22;100944.59;;;2.94;94.82
71716;BME280;59568;52.128;5.434;2023-02-25T00:13:49;100941.66;;;3.02;94.33
71716;BME280;59568;52.128;5.434;2023-02-25T00:16:18;100944.31;;;3.07;94.26
71716;BME280;59568;52.128;5.434;2023-02-25T00:18:45;100945.19;;;3.13;94.13
71716;BME280;59568;52.128;5.434;2023-02-25T00:21:14;100947.31;;;3.16;93.61
71716;BME280;59568;52.128;5.434;2023-02-25T00:23:43;100948.69;;;3.24;92.94
71716;BME280;59568;52.128;5.434;2023-02-25T00:26:11;100946.66;;;3.26;92.52
71716;BME280;59568;52.128;5.434;2023-02-25T00:28:38;100947.78;;;3.30;92.37
71716;BME280;59568;52.128;5.434;2023-02-25T00:31:14;100950.13;;;3.31;91.87
71716;BME280;59568;52.128;5.434;2023-02-25T00:33:42;100944.63;;;3.28;91.54
71716;BME280;59568;52.128;5.434;2023-02-25T00:36:12;100949.81;;;3.28;91.53
71716;BME280;59568;52.128;5.434;2023-02-25T00:38:39;100949.81;;;3.28;91.01
71716;BME280;59568;52.128;5.434;2023-02-25T00:41:10;100956.53;;;3.29;91.21
71716;BME280;59568;52.128;5.434;2023-02-25T00:43:38;100957.31;;;3.29;91.18
71716;BME280;59568;52.128;5.434;2023-02-25T00:46:05;100948.31;;;3.32;91.20
71716;BME280;59568;52.128;5.434;2023-02-25T00:48:31;100955.28;;;3.31;91.31
71716;BME280;59568;52.128;5.434;2023-02-25T00:51:06;100958.97;;;3.35;90.88
71716;BME280;59568;52.128;5.434;2023-02-25T00:53:34;100965.47;;;3.38;90.80
71716;BME280;59568;52.128;5.434;2023-02-25T00:56:01;100972.53;;;3.43;90.67
71716;BME280;59568;52.128;5.434;2023-02-25T00:58:27;100971.50;;;3.44;90.31
71716;BME280;59568;52.128;5.434;2023-02-25T01:00:54;100978.25;;;3.45;89.89
71716;BME280;59568;52.128;5.434;2023-02-25T01:03:21;100973.09;;;3.45;89.82
71716;BME280;59568;52.128;5.434;2023-02-25T01:05:49;100978.25;;;3.45;89.65
71716;BME280;59568;52.128;5.434;2023-02-25T01:08:17;100975.91;;;3.43;89.53
71716;BME280;59568;52.128;5.434;2023-02-25T01:10:44;100967.59;;;3.41;89.86
71716;BME280;59568;52.128;5.434;2023-02-25T01:13:13;100972.22;;;3.39;90.29
71716;BME280;59568;52.128;5.434;2023-02-25T01:15:40;100972.66;;;3.36;90.66
71716;BME280;59568;52.128;5.434;2023-02-25T01:18:07;100974.47;;;3.35;90.92
71716;BME280;59568;52.128;5.434;2023-02-25T01:20:37;100983.00;;;3.36;90.96
71716;BME280;59568;52.128;5.434;2023-02-25T01:23:03;100976.81;;;3.37;90.98
71716;BME280;59568;52.128;5.434;2023-02-25T01:25:30;100972.91;;;3.34;91.27
71716;BME280;59568;52.128;5.434;2023-02-25T01:27:56;100984.81;;;3.35;91.43
71716;BME280;59568;52.128;5.434;2023-02-25T01:30:23;100978.31;;;3.33;91.40
71716;BME280;59568;52.128;5.434;2023-02-25T01:32:50;100972.38;;;3.32;91.72
71716;BME280;59568;52.128;5.434;2023-02-25T01:35:17;100978.53;;;3.31;92.06
71716;BME280;59568;52.128;5.434;2023-02-25T01:37:43;100972.03;;;3.29;91.98
71716;BME280;59568;52.128;5.434;2023-02-25T01:40:13;100976.66;;;3.27;91.94
71716;BME280;59568;52.128;5.434;2023-02-25T01:42:44;100979.69;;;3.24;92.03
71716;BME280;59568;52.128;5.434;2023-02-25T01:52:40;100967.81;;;3.23;92.17
71716;BME280;59568;52.128;5.434;2023-02-25T01:55:08;100968.59;;;3.23;92.32
71716;BME280;59568;52.128;5.434;2023-02-25T01:57:36;100966.22;;;3.22;92.20
71716;BME280;59568;52.128;5.434;2023-02-25T02:00:06;100962.09;;;3.20;92.09
71716;BME280;59568;52.128;5.434;2023-02-25T02:02:44;100969.06;;;3.20;91.80
71716;BME280;59568;52.128;5.434;2023-02-25T02:05:12;100970.53;;;3.16;91.77
71716;BME280;59568;52.128;5.434;2023-02-25T02:07:40;100964.03;;;3.13;91.36
71716;BME280;59568;52.128;5.434;2023-02-25T02:10:07;100969.19;;;3.13;91.34
71716;BME280;59568;52.128;5.434;2023-02-25T02:12:36;100969.97;;;3.14;91.50
71716;BME280;59568;52.128;5.434;2023-02-25T02:15:07;100963.03;;;3.14;91.42
71716;BME280;59568;52.128;5.434;2023-02-25T02:17:43;100972.31;;;3.15;91.42
71716;BME280;59568;52.128;5.434;2023-02-25T02:33:57;100965.28;;;3.11;92.06
71716;BME280;59568;52.128;5.434;2023-02-25T02:45:21;100966.63;;;2.85;92.92
71716;BME280;59568;52.128;5.434;2023-02-25T02:47:53;100962.72;;;2.82;92.72
71716;BME280;59568;52.128;5.434;2023-02-25T02:50:29;100968.53;;;2.77;92.91
71716;BME280;59568;52.128;5.434;2023-02-25T02:53:04;100965.97;;;2.77;93.09
71716;BME280;59568;52.128;5.434;2023-02-25T02:55:36;100965.41;;;2.75;93.33
71716;BME280;59568;52.128;5.434;2023-02-25T02:58:10;100956.56;;;2.71;93.43
71716;BME280;59568;52.128;5.434;2023-02-25T03:00:42;100964.22;;;2.66;93.75
71716;BME280;59568;52.128;5.434;2023-02-25T03:03:15;100965.00;;;2.67;93.77
71716;BME280;59568;52.128;5.434;2023-02-25T03:05:48;100967.03;;;2.65;93.74
71716;BME280;59568;52.128;5.434;2023-02-25T03:08:21;100968.03;;;2.64;93.96
71716;BME280;59568;52.128;5.434;2023-02-25T03:10:51;100970.84;;;2.62;93.91
71716;BME280;59568;52.128;5.434;2023-02-25T03:13:17;100970.28;;;2.60;94.08
71716;BME280;59568;52.128;5.434;2023-02-25T03:15:45;100974.19;;;2.63;94.56
71716;BME280;59568;52.128;5.434;2023-02-25T03:20:51;100978.44;;;2.69;94.42
71716;BME280;59568;52.128;5.434;2023-02-25T03:23:25;100982.91;;;2.73;94.34
71716;BME280;59568;52.128;5.434;2023-02-25T03:25:57;100981.78;;;2.81;94.47
71716;BME280;59568;52.128;5.434;2023-02-25T03:28:33;100990.97;;;2.89;94.35
71716;BME280;59568;52.128;5.434;2023-02-25T03:31:08;100984.31;;;2.93;93.99
71716;BME280;59568;52.128;5.434;2023-02-25T03:36:35;100977.22;;;3.00;94.27
71716;BME280;59568;52.128;5.434;2023-02-25T03:39:12;100981.38;;;3.01;94.00
71716;BME280;59568;52.128;5.434;2023-02-25T03:41:43;100976.22;;;3.01;94.00
71716;BME280;59568;52.128;5.434;2023-02-25T03:44:18;100978.34;;;3.04;93.74
71716;BME280;59568;52.128;5.434;2023-02-25T03:46:46;100983.72;;;3.03;93.80
71716;BME280;59568;52.128;5.434;2023-02-25T03:49:19;100994.06;;;3.03;93.57
71716;BME280;59568;52.128;5.434;2023-02-25T03:51:47;101001.09;;;3.07;93.49
71716;BME280;59568;52.128;5.434;2023-02-25T03:54:15;101000.66;;;3.10;93.05
71716;BME280;59568;52.128;5.434;2023-02-25T03:56:46;100997.03;;;3.11;93.18
71716;BME280;59568;52.128;5.434;2023-02-25T03:59:14;100998.63;;;3.12;92.97
71716;BME280;59568;52.128;5.434;2023-02-25T04:01:42;100997.81;;;3.12;92.78
71716;BME280;59568;52.128;5.434;2023-02-25T04:04:10;101001.19;;;3.12;92.60
71716;BME280;59568;52.128;5.434;2023-02-25T04:06:36;101006.38;;;3.12;92.09
71716;BME280;59568;52.128;5.434;2023-02-25T04:09:03;101006.25;;;3.07;91.62
71716;BME280;59568;52.128;5.434;2023-02-25T04:11:31;101005.38;;;3.02;91.09
71716;BME280;59568;52.128;5.434;2023-02-25T04:13:57;101002.94;;;2.95;91.09
71716;BME280;59568;52.128;5.434;2023-02-25T04:16:24;101007.56;;;2.93;90.66
71716;BME280;59568;52.128;5.434;2023-02-25T04:18:50;101012.84;;;2.86;90.36
71716;BME280;59568;52.128;5.434;2023-02-25T04:21:46;101013.22;;;2.78;90.31
71716;BME280;59568;52.128;5.434;2023-02-25T04:24:13;101014.13;;;2.72;90.22
71716;BME280;59568;52.128;5.434;2023-02-25T04:26:39;101012.22;;;2.67;90.44
71716;BME280;59568;52.128;5.434;2023-02-25T04:29:06;101012.13;;;2.62;90.48
71716;BME280;59568;52.128;5.434;2023-02-25T04:31:33;101011.91;;;2.64;90.47
71716;BME280;59568;52.128;5.434;2023-02-25T04:33:59;101009.31;;;2.64;90.15
71716;BME280;59568;52.128;5.434;2023-02-25T04:36:32;101012.13;;;2.62;90.29
71716;BME280;59568;52.128;5.434;2023-02-25T04:39:02;101017.84;;;2.64;90.43
71716;BME280;59568;52.128;5.434;2023-02-25T04:41:31;101023.34;;;2.68;90.27
71716;BME280;59568;52.128;5.434;2023-02-25T04:43:58;101023.09;;;2.69;90.26
71716;BME280;59568;52.128;5.434;2023-02-25T04:46:25;101023.44;;;2.73;90.42
71716;BME280;59568;52.128;5.434;2023-02-25T04:48:52;101023.19;;;2.74;89.91
71716;BME280;59568;52.128;5.434;2023-02-25T04:51:18;101037.09;;;2.73;89.73
71716;BME280;59568;52.128;5.434;2023-02-25T04:53:47;101024.44;;;2.72;89.86
71716;BME280;59568;52.128;5.434;2023-02-25T04:56:14;101029.38;;;2.73;89.53
71716;BME280;59568;52.128;5.434;2023-02-25T04:58:41;101033.97;;;2.71;89.45
71716;BME280;59568;52.128;5.434;2023-02-25T05:01:08;101029.84;;;2.70;89.59
71716;BME280;59568;52.128;5.434;2023-02-25T05:03:35;101028.03;;;2.71;89.43
71716;BME280;59568;52.128;5.434;2023-02-25T05:06:02;101029.06;;;2.70;89.26
71716;BME280;59568;52.128;5.434;2023-02-25T05:08:29;101027.81;;;2.72;89.30
71716;BME280;59568;52.128;5.434;2023-02-25T05:10:57;101028.38;;;2.74;89.07
71716;BME280;59568;52.128;5.434;2023-02-25T05:13:24;101021.19;;;2.76;89.09
71716;BME280;59568;52.128;5.434;2023-02-25T05:15:52;101025.88;;;2.79;89.33
71716;BME280;59568;52.128;5.434;2023-02-25T05:18:18;101023.84;;;2.82;89.60
71716;BME280;59568;52.128;5.434;2023-02-25T05:20:46;101029.00;;;2.82;89.56
71716;BME280;59568;52.128;5.434;2023-02-25T05:23:13;101019.78;;;2.86;89.80
71716;BME280;59568;52.128;5.434;2023-02-25T05:25:40;101016.22;;;2.87;89.83
71716;BME280;59568;52.128;5.434;2023-02-25T05:28:08;101019.34;;;2.89;89.78
71716;BME280;59568;52.128;5.434;2023-02-25T05:30:36;101024.50;;;2.89;89.66
71716;BME280;59568;52.128;5.434;2023-02-25T05:33:05;101029.78;;;2.94;89.48
71716;BME280;59568;52.128;5.434;2023-02-25T05:35:32;101034.69;;;2.95;89.31
71716;BME280;59568;52.128;5.434;2023-02-25T05:37:58;101038.63;;;2.98;89.54
71716;BME280;59568;52.128;5.434;2023-02-25T05:40:25;101032.00;;;3.02;89.44
71716;BME280;59568;52.128;5.434;2023-02-25T05:42:52;101035.13;;;3.04;89.54
71716;BME280;59568;52.128;5.434;2023-02-25T05:45:18;101033.09;;;3.06;89.53
71716;BME280;59568;52.128;5.434;2023-02-25T05:47:46;101031.09;;;3.08;89.54
71716;BME280;59568;52.128;5.434;2023-02-25T05:50:13;101047.13;;;3.10;89.52
71716;BME280;59568;52.128;5.434;2023-02-25T05:52:39;101044.28;;;3.12;89.24
71716;BME280;59568;52.128;5.434;2023-02-25T05:55:06;101042.19;;;3.09;89.42
71716;BME280;59568;52.128;5.434;2023-02-25T05:57:34;101048.34;;;3.08;89.37
71716;BME280;59568;52.128;5.434;2023-02-25T06:00:03;101042.97;;;3.09;89.09
71716;BME280;59568;52.128;5.434;2023-02-25T06:02:32;101036.78;;;3.10;89.01
71716;BME280;59568;52.128;5.434;2023-02-25T06:04:58;101048.13;;;3.09;89.00
71716;BME280;59568;52.128;5.434;2023-02-25T06:07:28;101047.34;;;3.09;88.75
71716;BME280;59568;52.128;5.434;2023-02-25T06:09:55;101050.72;;;3.09;88.93
71716;BME280;59568;52.128;5.434;2023-02-25T06:12:31;101058.69;;;3.08;88.59
71716;BME280;59568;52.128;5.434;2023-02-25T06:14:58;101058.38;;;3.04;88.64
71716;BME280;59568;52.128;5.434;2023-02-25T06:17:25;101050.50;;;2.99;88.61
71716;BME280;59568;52.128;5.434;2023-02-25T06:19:52;101051.00;;;2.96;88.64
71716;BME280;59568;52.128;5.434;2023-02-25T06:22:21;101051.22;;;2.94;88.53
71716;BME280;59568;52.128;5.434;2023-02-25T06:24:48;101063.09;;;2.95;89.12
71716;BME280;59568;52.128;5.434;2023-02-25T06:27:14;101061.31;;;2.96;88.87
71716;BME280;59568;52.128;5.434;2023-02-25T06:29:41;101061.88;;;2.98;89.00
71716;BME280;59568;52.128;5.434;2023-02-25T06:32:09;101072.75;;;3.00;89.09
71716;BME280;59568;52.128;5.434;2023-02-25T06:34:37;101073.06;;;3.04;89.16
71716;BME280;59568;52.128;5.434;2023-02-25T06:37:04;101073.63;;;3.06;89.17
71716;BME280;59568;52.128;5.434;2023-02-25T06:39:31;101081.69;;;3.09;88.95
71716;BME280;59568;52.128;5.434;2023-02-25T06:41:57;101084.06;;;3.11;88.92
71716;BME280;59568;52.128;5.434;2023-02-25T06:44:25;101084.59;;;3.13;88.87
71716;BME280;59568;52.128;5.434;2023-02-25T06:46:52;101089.56;;;3.14;88.59
71716;BME280;59568;52.128;5.434;2023-02-25T06:49:23;101090.09;;;3.16;88.54
71716;BME280;59568;52.128;5.434;2023-02-25T06:51:49;101094.25;;;3.17;88.53
71716;BME280;59568;52.128;5.434;2023-02-25T06:54:17;101102.00;;;3.17;88.55
71716;BME280;59568;52.128;5.434;2023-02-25T06:56:43;101102.00;;;3.17;88.61
71716;BME280;59568;52.128;5.434;2023-02-25T06:59:10;101099.41;;;3.17;88.70
71716;BME280;59568;52.128;5.434;2023-02-25T07:01:37;101096.81;;;3.17;88.92
71716;BME280;59568;52.128;5.434;2023-02-25T07:04:03;101104.13;;;3.20;88.83
71716;BME280;59568;52.128;5.434;2023-02-25T07:06:30;101117.59;;;3.23;88.90
71716;BME280;59568;52.128;5.434;2023-02-25T07:08:57;101124.31;;;3.24;89.20
71716;BME280;59568;52.128;5.434;2023-02-25T07:13:50;101147.25;;;3.08;91.61
71716;BME280;59568;52.128;5.434;2023-02-25T07:16:19;101138.84;;;2.89;92.30
71716;BME280;59568;52.128;5.434;2023-02-25T07:18:46;101134.72;;;2.76;92.99
71716;BME280;59568;52.128;5.434;2023-02-25T07:21:13;101140.31;;;2.73;93.42
71716;BME280;59568;52.128;5.434;2023-02-25T07:23:41;101134.50;;;2.66;94.00
71716;BME280;59568;52.128;5.434;2023-02-25T07:26:10;101145.59;;;2.67;94.18
71716;BME280;59568;52.128;5.434;2023-02-25T07:28:38;101146.38;;;2.67;94.73
71716;BME280;59568;52.128;5.434;2023-02-25T07:31:10;101143.81;;;2.67;95.12
71716;BME280;59568;52.128;5.434;2023-02-25T07:33:37;101151.09;;;2.70;95.40
71716;BME280;59568;52.128;5.434;2023-02-25T07:36:04;101143.94;;;2.72;95.74
71716;BME280;59568;52.128;5.434;2023-02-25T07:38:30;101146.59;;;2.77;96.37
71716;BME280;59568;52.128;5.434;2023-02-25T07:41:03;101140.78;;;2.82;96.28
71716;BME280;59568;52.128;5.434;2023-02-25T07:43:30;101148.84;;;2.86;96.56
71716;BME280;59568;52.128;5.434;2023-02-25T07:45:57;101158.50;;;2.90;96.69
71716;BME280;59568;52.128;5.434;2023-02-25T07:48:23;101158.28;;;2.92;97.32
71716;BME280;59568;52.128;5.434;2023-02-25T07:50:50;101165.34;;;2.96;97.02
71716;BME280;59568;52.128;5.434;2023-02-25T07:53:17;101153.00;;;2.98;97.29
71716;BME280;59568;52.128;5.434;2023-02-25T07:55:48;101158.50;;;3.02;97.32
71716;BME280;59568;52.128;5.434;2023-02-25T07:58:15;101162.75;;;3.08;97.83
71716;BME280;59568;52.128;5.434;2023-02-25T08:00:41;101158.94;;;3.11;98.07
71716;BME280;59568;52.128;5.434;2023-02-25T08:03:11;101167.91;;;3.20;98.27
71716;BME280;59568;52.128;5.434;2023-02-25T08:05:37;101168.66;;;3.32;98.43
71716;BME280;59568;52.128;5.434;2023-02-25T08:08:04;101175.84;;;3.42;98.59
71716;BME280;59568;52.128;5.434;2023-02-25T08:10:31;101182.19;;;3.51;98.52
71716;BME280;59568;52.128;5.434;2023-02-25T08:12:58;101179.47;;;3.58;98.62
71716;BME280;59568;52.128;5.434;2023-02-25T08:15:24;101179.59;;;3.63;98.63
71716;BME280;59568;52.128;5.434;2023-02-25T08:17:51;101182.50;;;3.67;98.65
71716;BME280;59568;52.128;5.434;2023-02-25T08:20:18;101179.69;;;3.68;98.66
71716;BME280;59568;52.128;5.434;2023-02-25T08:22:44;101183.38;;;3.72;98.84
71716;BME280;59568;52.128;5.434;2023-02-25T08:25:11;101186.53;;;3.74;98.65
71716;BME280;59568;52.128;5.434;2023-02-25T08:27:37;101186.03;;;3.77;98.80
71716;BME280;59568;52.128;5.434;2023-02-25T08:30:05;101194.69;;;3.83;99.13
71716;BME280;59568;52.128;5.434;2023-02-25T08:32:35;101196.13;;;3.91;99.26
71716;BME280;59568;52.128;5.434;2023-02-25T08:35:02;101206.78;;;3.94;99.12
71716;BME280;59568;52.128;5.434;2023-02-25T08:37:28;101200.81;;;3.94;98.54
71716;BME280;59568;52.128;5.434;2023-02-25T08:39:55;101202.72;;;3.98;98.82
71716;BME280;59568;52.128;5.434;2023-02-25T08:42:22;101195.03;;;4.04;98.54
71716;BME280;59568;52.128;5.434;2023-02-25T08:44:49;101196.63;;;4.05;98.47
71716;BME280;59568;52.128;5.434;2023-02-25T08:47:15;101199.75;;;4.07;98.25
71716;BME280;59568;52.128;5.434;2023-02-25T08:49:42;101210.88;;;4.07;97.84
71716;BME280;59568;52.128;5.434;2023-02-25T08:52:11;101204.94;;;4.07;97.45
71716;BME280;59568;52.128;5.434;2023-02-25T08:54:39;101206.25;;;4.09;96.86
71716;BME280;59568;52.128;5.434;2023-02-25T08:57:06;101215.91;;;4.14;96.25
71716;BME280;59568;52.128;5.434;2023-02-25T08:59:33;101219.38;;;4.19;96.05
71716;BME280;59568;52.128;5.434;2023-02-25T09:02:05;101227.53;;;4.28;95.16
71716;BME280;59568;52.128;5.434;2023-02-25T09:04:33;101229.44;;;4.33;95.01
71716;BME280;59568;52.128;5.434;2023-02-25T09:07:00;101233.66;;;4.39;94.64
71716;BME280;59568;52.128;5.434;2023-02-25T09:09:28;101245.19;;;4.48;93.87
71716;BME280;59568;52.128;5.434;2023-02-25T09:11:55;101254.31;;;4.51;92.53
71716;BME280;59568;52.128;5.434;2023-02-25T09:14:21;101263.19;;;4.55;92.00
71716;BME280;59568;52.128;5.434;2023-02-25T09:16:48;101263.41;;;4.53;91.49
71716;BME280;59568;52.128;5.434;2023-02-25T09:19:14;101270.47;;;4.58;90.50
71716;BME280;59568;52.128;5.434;2023-02-25T09:21:44;101271.66;;;4.67;90.83
71716;BME280;59568;52.128;5.434;2023-02-25T09:24:14;101276.28;;;4.82;90.41
71716;BME280;59568;52.128;5.434;2023-02-25T09:26:41;101279.34;;;4.96;90.20
71716;BME280;59568;52.128;5.434;2023-02-25T09:29:08;101268.72;;;5.14;90.73
71716;BME280;59568;52.128;5.434;2023-02-25T09:31:35;101276.16;;;5.28;90.12
71716;BME280;59568;52.128;5.434;2023-02-25T09:34:04;101291.22;;;5.31;89.83
71716;BME280;59568;52.128;5.434;2023-02-25T09:36:32;101289.09;;;5.45;89.54
71716;BME280;59568;52.128;5.434;2023-02-25T09:38:58;101286.38;;;5.56;89.24
71716;BME280;59568;52.128;5.434;2023-02-25T09:44:39;101294.38;;;5.33;86.87
71716;BME280;59568;52.128;5.434;2023-02-25T09:49:58;101294.94;;;5.18;86.55
71716;BME280;59568;52.128;5.434;2023-02-25T09:52:44;101304.53;;;5.17;86.75
71716;BME280;59568;52.128;5.434;2023-02-25T09:55:29;101297.53;;;5.18;86.66
71716;BME280;59568;52.128;5.434;2023-02-25T09:58:04;101300.50;;;5.27;86.93
71716;BME280;59568;52.128;5.434;2023-02-25T10:00:45;101304.88;;;5.43;87.05
71716;BME280;59568;52.128;5.434;2023-02-25T10:03:24;101313.03;;;5.52;86.43
71716;BME280;59568;52.128;5.434;2023-02-25T10:08:49;101314.44;;;5.59;85.58
71716;BME280;59568;52.128;5.434;2023-02-25T10:25:17;101332.34;;;6.27;82.69
71716;BME280;59568;52.128;5.434;2023-02-25T10:28:05;101326.50;;;6.37;80.85
71716;BME280;59568;52.128;5.434;2023-02-25T10:31:00;101345.56;;;6.26;81.10
71716;BME280;59568;52.128;5.434;2023-02-25T10:33:33;101344.63;;;6.10;81.40
71716;BME280;59568;52.128;5.434;2023-02-25T10:36:07;101345.56;;;6.04;79.72
71716;BME280;59568;52.128;5.434;2023-02-25T10:38:38;101349.94;;;5.81;79.67
71716;BME280;59568;52.128;5.434;2023-02-25T10:41:07;101350.69;;;5.76;80.28
71716;BME280;59568;52.128;5.434;2023-02-25T10:43:34;101359.31;;;5.82;80.88
71716;BME280;59568;52.128;5.434;2023-02-25T10:46:12;101360.38;;;6.03;80.21
71716;BME280;59568;52.128;5.434;2023-02-25T10:48:41;101361.88;;;6.21;79.69
71716;BME280;59568;52.128;5.434;2023-02-25T10:51:11;101345.00;;;6.46;79.16
71716;BME280;59568;52.128;5.434;2023-02-25T10:53:40;101349.75;;;6.54;78.95
71716;BME280;59568;52.128;5.434;2023-02-25T10:56:08;101365.13;;;6.88;76.77
71716;BME280;59568;52.128;5.434;2023-02-25T10:58:40;101356.00;;;6.85;75.71
71716;BME280;59568;52.128;5.434;2023-02-25T11:01:11;101359.34;;;6.80;76.27
71716;BME280;59568;52.128;5.434;2023-02-25T11:03:55;101358.75;;;6.73;75.39
71716;BME280;59568;52.128;5.434;2023-02-25T11:06:29;101372.91;;;6.33;76.51
71716;BME280;59568;52.128;5.434;2023-02-25T11:08:58;101382.09;;;5.97;77.97
71716;BME280;59568;52.128;5.434;2023-02-25T11:11:34;101394.25;;;5.57;79.60
71716;BME280;59568;52.128;5.434;2023-02-25T11:16:34;101427.97;;;4.95;81.51
71716;BME280;59568;52.128;5.434;2023-02-25T11:19:23;101423.88;;;4.53;82.56
71716;BME280;59568;52.128;5.434;2023-02-25T11:21:54;101410.97;;;4.30;83.52
71716;BME280;59568;52.128;5.434;2023-02-25T11:24:30;101419.22;;;4.27;84.48
71716;BME280;59568;52.128;5.434;2023-02-25T11:27:00;101419.50;;;4.42;85.10
71716;BME280;59568;52.128;5.434;2023-02-25T11:29:39;101409.03;;;4.77;85.04
71716;BME280;59568;52.128;5.434;2023-02-25T11:32:11;101408.78;;;5.08;85.64
71716;BME280;59568;52.128;5.434;2023-02-25T11:34:56;101420.09;;;5.35;84.65
71716;BME280;59568;52.128;5.434;2023-02-25T11:40:02;101416.44;;;5.87;83.59
71716;BME280;59568;52.128;5.434;2023-02-25T11:43:00;101421.13;;;6.07;83.34
71716;BME280;59568;52.128;5.434;2023-02-25T11:45:33;101426.63;;;6.33;82.48
71716;BME280;59568;52.128;5.434;2023-02-25T11:48:13;101413.28;;;6.68;81.74
71716;BME280;59568;52.128;5.434;2023-02-25T11:53:35;101400.59;;;6.50;78.15
71716;BME280;59568;52.128;5.434;2023-02-25T11:59:05;101422.59;;;6.20;76.06
71716;BME280;59568;52.128;5.434;2023-02-25T12:07:51;101404.16;;;6.93;71.72
71716;BME280;59568;52.128;5.434;2023-02-25T12:24:28;101426.28;;;6.46;67.91
71716;BME280;59568;52.128;5.434;2023-02-25T12:27:29;101422.47;;;6.10;65.36
71716;BME280;59568;52.128;5.434;2023-02-25T12:35:33;101425.50;;;6.73;64.75
71716;BME280;59568;52.128;5.434;2023-02-25T12:43:58;101407.28;;;7.27;62.74
71716;BME280;59568;52.128;5.434;2023-02-25T12:49:37;101419.53;;;7.32;62.96
71716;BME280;59568;52.128;5.434;2023-02-25T12:55:07;101440.94;;;6.35;60.94
71716;BME280;59568;52.128;5.434;2023-02-25T13:00:32;101439.78;;;6.70;60.03
71716;BME280;59568;52.128;5.434;2023-02-25T13:03:32;101433.34;;;7.05;59.21
71716;BME280;59568;52.128;5.434;2023-02-25T13:11:55;101463.69;;;6.72;60.56
71716;BME280;59568;52.128;5.434;2023-02-25T13:15:00;101473.03;;;6.29;60.03
71716;BME280;59568;52.128;5.434;2023-02-25T13:17:44;101476.06;;;6.21;59.90
71716;BME280;59568;52.128;5.434;2023-02-25T13:20:42;101470.00;;;6.54;59.90
71716;BME280;59568;52.128;5.434;2023-02-25T13:26:29;101462.78;;;7.11;60.40
71716;BME280;59568;52.128;5.434;2023-02-25T13:29:10;101456.88;;;7.20;59.77
71716;BME280;59568;52.128;5.434;2023-02-25T13:40:22;101468.72;;;6.57;60.98
71716;BME280;59568;52.128;5.434;2023-02-25T13:51:20;101490.84;;;6.20;59.34
71716;BME280;59568;52.128;5.434;2023-02-25T13:54:52;101500.47;;;5.86;58.89
71716;BME280;59568;52.128;5.434;2023-02-25T13:57:10;101505.56;;;5.81;59.76
71716;BME280;59568;52.128;5.434;2023-02-25T14:05:49;101507.41;;;6.36;56.62
71716;BME280;59568;52.128;5.434;2023-02-25T14:23:07;101500.50;;;6.91;56.66
71716;BME280;59568;52.128;5.434;2023-02-25T14:29:11;101512.00;;;6.51;57.42
71716;BME280;59568;52.128;5.434;2023-02-25T14:38:01;101566.34;;;6.19;56.57
71716;BME280;59568;52.128;5.434;2023-02-25T14:43:42;101549.50;;;5.88;56.48
71716;BME280;59568;52.128;5.434;2023-02-25T14:49:03;101564.53;;;5.86;56.20
71716;BME280;59568;52.128;5.434;2023-02-25T14:52:06;101572.94;;;5.93;56.66
71716;BME280;59568;52.128;5.434;2023-02-25T15:00:22;101572.31;;;5.86;56.80
71716;BME280;59568;52.128;5.434;2023-02-25T15:17:19;101598.59;;;5.32;56.01
71716;BME280;59568;52.128;5.434;2023-02-25T15:23:18;101604.56;;;5.32;56.17
71716;BME280;59568;52.128;5.434;2023-02-25T15:25:48;101600.75;;;5.23;56.13
71716;BME280;59568;52.128;5.434;2023-02-25T15:38:48;101613.97;;;5.10;57.87
71716;BME280;59568;52.128;5.434;2023-02-25T15:43:58;101623.09;;;5.12;57.05
71716;BME280;59568;52.128;5.434;2023-02-25T15:51:43;101646.22;;;4.78;55.35
71716;BME280;59568;52.128;5.434;2023-02-25T15:57:02;101651.38;;;4.67;56.04
71716;BME280;59568;52.128;5.434;2023-02-25T16:07:30;101663.78;;;4.53;58.08
71716;BME280;59568;52.128;5.434;2023-02-25T16:10:02;101665.47;;;4.47;58.34
71716;BME280;59568;52.128;5.434;2023-02-25T16:12:30;101662.53;;;4.44;59.02
71716;BME280;59568;52.128;5.434;2023-02-25T16:14:58;101665.22;;;4.37;58.49
71716;BME280;59568;52.128;5.434;2023-02-25T16:17:31;101675.66;;;4.30;58.48
71716;BME280;59568;52.128;5.434;2023-02-25T16:20:29;101672.41;;;4.23;59.07
71716;BME280;59568;52.128;5.434;2023-02-25T16:22:59;101688.34;;;4.20;59.90
71716;BME280;59568;52.128;5.434;2023-02-25T16:25:39;101689.03;;;4.15;59.42
71716;BME280;59568;52.128;5.434;2023-02-25T16:28:22;101691.91;;;4.07;59.52
71716;BME280;59568;52.128;5.434;2023-02-25T16:31:08;101692.59;;;4.03;59.29
71716;BME280;59568;52.128;5.434;2023-02-25T16:33:55;101698.41;;;3.98;59.41
71716;BME280;59568;52.128;5.434;2023-02-25T16:36:35;101715.56;;;3.92;59.75
71716;BME280;59568;52.128;5.434;2023-02-25T16:39:09;101711.06;;;3.88;59.84
71716;BME280;59568;52.128;5.434;2023-02-25T16:41:37;101710.13;;;3.82;60.38
71716;BME280;59568;52.128;5.434;2023-02-25T16:44:05;101697.66;;;3.79;60.00
71716;BME280;59568;52.128;5.434;2023-02-25T16:46:34;101716.63;;;3.73;59.68
71716;BME280;59568;52.128;5.434;2023-02-25T16:49:07;101726.59;;;3.69;59.62
71716;BME280;59568;52.128;5.434;2023-02-25T16:51:40;101733.22;;;3.65;60.28
71716;BME280;59568;52.128;5.434;2023-02-25T16:54:29;101731.72;;;3.57;59.96
71716;BME280;59568;52.128;5.434;2023-02-25T16:57:01;101727.19;;;3.53;60.51
71716;BME280;59568;52.128;5.434;2023-02-25T16:59:37;101730.84;;;3.45;60.88
71716;BME280;59568;52.128;5.434;2023-02-25T17:04:52;101743.69;;;3.33;61.50
71716;BME280;59568;52.128;5.434;2023-02-25T17:07:23;101739.59;;;3.26;61.82
71716;BME280;59568;52.128;5.434;2023-02-25T17:09:58;101753.16;;;3.21;61.69